createdAt,value
2019-02-18T00:04:48.209Z,28.07
2019-02-18T00:09:56.509Z,27.17
2019-02-18T00:15:04.748Z,27.48
2019-02-18T00:20:13.054Z,25.38
2019-02-18T00:25:21.108Z,26.47
2019-02-18T00:30:29.342Z,26.76
2019-02-18T00:35:37.618Z,25.61
2019-02-18T00:40:45.730Z,26.43
2019-02-18T00:45:53.978Z,27.24
2019-02-18T00:51:02.128Z,26.48
2019-02-18T00:56:10.425Z,24.48
2019-02-18T01:01:18.568Z,25.36
2019-02-18T01:06:26.692Z,24.82
2019-02-18T01:11:34.945Z,26.24
2019-02-18T01:16:43.125Z,25.95
2019-02-18T01:21:51.453Z,24.74
2019-02-18T01:26:59.509Z,25.38
2019-02-18T01:32:08.041Z,24.59
2019-02-18T01:37:16.267Z,25.00
2019-02-18T01:42:24.311Z,25.73
2019-02-18T01:47:32.562Z,27.37
2019-02-18T01:57:49.505Z,24.49
2019-02-18T02:02:57.766Z,25.83
2019-02-18T02:08:05.906Z,23.35
2019-02-18T02:13:13.991Z,24.63
2019-02-18T02:18:22.192Z,27.43
2019-02-18T02:28:38.711Z,26.17
2019-02-18T02:33:46.896Z,24.92
2019-02-18T02:38:55.151Z,24.01
2019-02-18T02:44:03.220Z,24.63
2019-02-18T02:49:11.416Z,24.97
2019-02-18T02:54:19.598Z,25.00
2019-02-18T02:59:27.873Z,26.10
2019-02-18T03:04:36.075Z,26.08
2019-02-18T03:09:44.265Z,23.37
2019-02-18T03:14:52.359Z,20.56
2019-02-18T03:20:00.529Z,19.82
2019-02-18T03:25:08.600Z,18.87
2019-02-18T03:30:16.821Z,17.56
2019-02-18T03:35:25.298Z,17.78
2019-02-18T03:40:33.412Z,18.51
2019-02-18T03:45:41.587Z,17.66
2019-02-18T03:50:49.743Z,18.45
2019-02-18T03:55:57.870Z,17.68
2019-02-18T04:01:06.095Z,18.07
2019-02-18T04:11:22.469Z,17.49
2019-02-18T04:16:30.713Z,17.83
2019-02-18T04:21:38.900Z,21.26
2019-02-18T04:26:47.046Z,22.38
2019-02-18T04:31:55.212Z,22.50
2019-02-18T04:37:03.370Z,22.88
2019-02-18T04:42:11.498Z,24.32
2019-02-18T04:47:19.726Z,21.94
2019-02-18T04:52:28.014Z,19.13
2019-02-18T04:57:36.086Z,19.11
2019-02-18T05:02:44.282Z,17.02
2019-02-18T05:07:52.400Z,17.86
2019-02-18T05:13:00.567Z,18.22
2019-02-18T05:18:08.674Z,17.64
2019-02-18T05:23:16.839Z,17.23
2019-02-18T05:28:24.913Z,17.73
2019-02-18T05:33:33.270Z,18.23
2019-02-18T05:38:41.446Z,18.22
2019-02-18T05:43:49.689Z,17.43
2019-02-18T05:48:57.834Z,18.43
2019-02-18T05:59:14.812Z,18.28
2019-02-18T06:04:22.907Z,19.96
2019-02-18T06:09:31.318Z,20.39
2019-02-18T06:14:39.360Z,23.23
2019-02-18T06:19:47.554Z,23.66
2019-02-18T06:24:55.891Z,24.28
2019-02-18T06:30:02.627Z,24.71
2019-02-18T06:35:11.453Z,23.73
2019-02-18T06:40:20.033Z,22.81
2019-02-18T06:45:28.298Z,23.48
2019-02-18T06:50:36.892Z,23.71
2019-02-18T06:55:45.059Z,23.89
2019-02-18T07:00:53.626Z,23.74
2019-02-18T07:06:01.867Z,23.90
2019-02-18T07:11:10.016Z,23.50
2019-02-18T07:16:19.164Z,23.81
2019-02-18T07:21:27.291Z,23.14
2019-02-18T07:26:35.749Z,21.97
2019-02-18T07:47:08.889Z,21.25
2019-02-18T07:52:17.126Z,20.58
2019-02-18T07:57:25.934Z,19.48
2019-02-18T08:02:34.074Z,19.08
2019-02-18T08:07:42.228Z,20.49
2019-02-18T08:12:51.368Z,20.59
2019-02-18T08:17:59.549Z,20.59
2019-02-18T08:23:07.750Z,20.62
2019-02-18T08:28:15.877Z,20.49
2019-02-18T08:33:23.884Z,20.03
2019-02-18T08:38:31.930Z,19.79
2019-02-18T08:43:40.269Z,19.59
2019-02-18T08:48:48.308Z,18.81
2019-02-18T08:53:56.445Z,17.68
2019-02-18T08:59:04.587Z,17.34
2019-02-18T09:04:12.708Z,17.04
2019-02-18T09:09:22.817Z,15.87
2019-02-18T09:14:21.279Z,15.82
2019-02-18T09:19:29.520Z,15.75
2019-02-18T09:24:38.246Z,15.85
2019-02-18T09:29:46.473Z,16.29
2019-02-18T09:35:01.742Z,15.87
2019-02-18T09:40:02.897Z,16.93
2019-02-18T09:45:11.387Z,16.33
2019-02-18T09:50:19.857Z,16.88
2019-02-18T09:55:28.423Z,16.95
2019-02-18T10:00:36.696Z,17.17
2019-02-18T10:05:45.238Z,17.59
2019-02-18T10:10:56.088Z,17.73
2019-02-18T10:16:01.649Z,18.42
2019-02-18T10:21:09.887Z,17.59
2019-02-18T10:26:18.301Z,17.70
2019-02-18T10:31:26.479Z,19.53
2019-02-18T10:36:35.716Z,21.63
2019-02-18T10:41:43.854Z,20.04
2019-02-18T10:46:52.405Z,19.43
2019-02-18T10:52:00.751Z,20.12
2019-02-18T10:57:09.283Z,20.05
2019-02-18T11:02:17.490Z,20.03
2019-02-18T11:07:25.935Z,18.49
2019-02-18T11:12:34.133Z,17.75
2019-02-18T11:17:42.483Z,17.54
2019-02-18T11:22:50.854Z,17.47
2019-02-18T11:27:59.313Z,17.24
2019-02-18T11:33:07.646Z,16.39
2019-02-18T11:38:16.167Z,17.55
2019-02-18T11:43:24.344Z,17.57
2019-02-18T11:48:32.769Z,18.19
2019-02-18T11:53:41.089Z,18.39
2019-02-18T11:58:49.525Z,18.10
2019-02-18T12:03:57.728Z,18.50
2019-02-18T12:09:06.055Z,18.11
2019-02-18T12:14:14.225Z,18.82
2019-02-18T12:19:22.584Z,19.09
2019-02-18T12:24:30.809Z,20.76
2019-02-18T12:29:39.280Z,20.32
2019-02-18T12:34:47.483Z,20.75
2019-02-18T12:39:55.749Z,19.59
2019-02-18T12:45:03.895Z,20.31
2019-02-18T12:50:12.273Z,19.05
2019-02-18T12:55:21.150Z,18.94
2019-02-18T13:00:29.178Z,19.74
2019-02-18T13:05:37.728Z,19.08
2019-02-18T13:10:46.013Z,19.22
2019-02-18T13:15:54.080Z,19.54
2019-02-18T13:21:02.414Z,19.63
2019-02-18T13:26:10.704Z,19.26
2019-02-18T13:31:19.581Z,18.82
2019-02-18T13:36:27.725Z,19.28
2019-02-18T13:41:36.938Z,18.09
2019-02-18T13:46:43.930Z,18.75
2019-02-18T13:51:56.647Z,18.90
2019-02-18T13:56:59.869Z,18.94
2019-02-18T14:02:08.187Z,18.69
2019-02-18T14:07:16.292Z,18.64
2019-02-18T14:12:24.642Z,17.95
2019-02-18T14:17:33.094Z,19.10
2019-02-18T14:22:41.437Z,19.47
2019-02-18T14:27:49.964Z,19.22
2019-02-18T14:32:59.393Z,18.50
2019-02-18T14:38:07.425Z,18.42
2019-02-18T14:43:15.642Z,18.71
2019-02-18T14:48:24.009Z,18.55
2019-02-18T14:53:32.384Z,18.05
2019-02-18T14:58:40.531Z,18.09
2019-02-18T15:03:48.986Z,17.98
2019-02-18T15:08:57.256Z,17.83
2019-02-18T15:14:05.760Z,16.90
2019-02-18T15:19:13.985Z,16.70
2019-02-18T15:24:22.487Z,17.05
2019-02-18T15:29:30.651Z,16.67
2019-02-18T15:34:39.117Z,17.23
2019-02-18T15:39:47.280Z,17.48
2019-02-18T15:44:55.645Z,17.28
2019-02-18T15:50:03.907Z,16.40
2019-02-18T15:55:12.176Z,16.56
2019-02-18T16:00:20.700Z,16.82
2019-02-18T16:05:29.448Z,16.95
2019-02-18T16:10:37.935Z,16.15
2019-02-18T16:15:46.726Z,15.57
2019-02-18T16:20:54.757Z,15.51
2019-02-18T16:26:03.051Z,15.63
2019-02-18T16:31:11.296Z,15.98
2019-02-18T16:36:19.900Z,16.99
2019-02-18T16:41:27.877Z,16.73
2019-02-18T16:46:36.277Z,16.79
2019-02-18T16:51:44.476Z,16.33
2019-02-18T16:56:52.961Z,16.37
2019-02-18T17:02:01.101Z,16.63
2019-02-18T17:07:10.213Z,17.59
2019-02-18T17:12:18.439Z,16.63
2019-02-18T17:17:26.669Z,18.30
2019-02-18T17:22:34.762Z,16.79
2019-02-18T17:27:43.109Z,17.36
2019-02-18T17:32:51.297Z,17.65
2019-02-18T17:37:59.737Z,16.95
2019-02-18T17:43:16.072Z,17.28
2019-02-18T17:48:15.782Z,17.50
2019-02-18T17:53:24.086Z,16.43
2019-02-18T17:58:32.693Z,16.73
2019-02-18T18:03:40.882Z,16.67
2019-02-18T18:08:49.260Z,17.34
2019-02-18T18:13:57.376Z,16.94
2019-02-18T18:19:09.314Z,17.37
2019-02-18T18:24:13.801Z,17.54
2019-02-18T18:29:22.093Z,17.17
2019-02-18T18:34:30.361Z,18.20
2019-02-18T18:39:38.629Z,17.11
2019-02-18T18:44:46.748Z,17.42
2019-02-18T18:49:55.033Z,17.59
2019-02-18T18:55:03.194Z,17.47
2019-02-18T19:00:12.209Z,16.64
2019-02-18T19:05:20.682Z,17.19
2019-02-18T19:10:29.093Z,17.12
2019-02-18T19:15:37.334Z,16.79
2019-02-18T19:20:45.948Z,16.43
2019-02-18T19:25:54.081Z,17.46
2019-02-18T19:31:02.241Z,16.83
2019-02-18T19:36:10.281Z,17.95
2019-02-18T19:41:18.433Z,17.43
2019-02-18T19:46:26.456Z,17.30
2019-02-18T19:51:34.419Z,17.28
2019-02-18T19:56:42.415Z,16.60
2019-02-18T20:01:50.391Z,17.17
2019-02-18T20:06:58.506Z,16.35
2019-02-18T20:12:06.538Z,16.71
2019-02-18T20:17:14.632Z,16.93
2019-02-18T20:22:22.864Z,17.51
2019-02-18T20:27:30.860Z,17.37
2019-02-18T20:32:38.917Z,18.40
2019-02-18T20:37:46.880Z,18.26
2019-02-18T20:42:54.890Z,21.82
2019-02-18T20:53:10.963Z,16.25
2019-02-18T20:58:19.026Z,15.83
2019-02-18T21:03:27.092Z,16.45
2019-02-18T21:08:35.195Z,16.59
2019-02-18T21:18:51.958Z,16.97
2019-02-18T21:24:00.274Z,16.80
2019-02-18T21:29:08.608Z,16.61
2019-02-18T21:34:17.121Z,17.40
2019-02-18T21:39:25.692Z,18.20
2019-02-18T22:05:07.818Z,16.49
2019-02-18T22:10:15.837Z,16.93
2019-02-18T22:25:40.818Z,16.17
2019-02-18T23:01:40.127Z,18.30
2019-02-18T23:22:12.929Z,16.93
2019-02-18T23:37:37.714Z,16.66
2019-02-18T23:42:45.882Z,16.57
2019-02-18T23:47:54.202Z,17.58
2019-02-18T23:53:02.365Z,17.10
